Flight Track Log - Related Links

Times and Time Zones

All times are in EDT time to prevent confusion due to time zone crossing. See the SNC8107 flight status page for this flight to view local times or setup timezone preferences in your user account.

Time Position Orientation Groundspeed Altitude Reporting Facility
EDT Latitude Longitude Course Direction KTS MPH feet Rate Location/Type
Mon 09:06:14 AM 18.4500 -65.9667 90° East 110 127 900  Level San Juan Center
Mon 09:07:14 AM 18.4500 -65.9333 90° East 130 150 1,500 645 Climbing San Juan Center
Mon 09:08:15 AM 18.4500 -65.9000 90° East 130 150 2,200 650 Climbing San Juan Center
Mon 09:09:14 AM 18.4500 -65.8500 90° East 130 150 2,800 450 Climbing San Juan Center
Mon 09:10:15 AM 18.4500 -65.8167 90° East 140 161 3,100 446 Climbing San Juan Center
Mon 09:11:15 AM 18.4500 -65.7833 90° East 140 161 3,700 450 Climbing San Juan Center
Mon 09:12:15 AM 18.4500 -65.7333 90° East 140 161 4,000 446 Climbing San Juan Center
Mon 09:13:16 AM 18.4667 -65.7000 62° Northeast 140 161 4,600 496 Climbing San Juan Center
Mon 09:14:16 AM 18.4667 -65.6500 90° East 140 161 5,000 200 Climbing San Juan Center
Mon 09:15:16 AM 18.4667 -65.6000 90° East 160 184 5,000  Level San Juan Center
Mon 09:16:17 AM 18.4667 -65.5667 90° East 170 196 5,000  Level San Juan Center
Mon 09:17:17 AM 18.4667 -65.5000 90° East 190 219 5,000  Level San Juan Center
Mon 09:18:18 AM 18.4667 -65.4500 90° East 180 207 5,000  Level San Juan Center
Mon 09:19:18 AM 18.4667 -65.4000 90° East 170 196 5,000  Level San Juan Center
Mon 09:20:18 AM 18.4333 -65.3667 137° Southeast 170 196 5,000 -99 Level San Juan Center
Mon 09:21:19 AM 18.4000 -65.3333 137° Southeast 170 196 4,800 -450 Descending San Juan Center
Mon 09:22:18 AM 18.3667 -65.2833 125° Southeast 190 219 4,100 -650 Descending San Juan Center
Mon 09:23:19 AM 18.3500 -65.2333 109° East 180 207 3,500 -595 Descending San Juan Center
Mon 09:24:19 AM 18.3333 -65.2000 118° Southeast 180 207 2,900 -650 Descending San Juan Center
Mon 09:25:19 AM 18.3167 -65.1500 109° East 170 196 2,200 -397 Descending San Juan Center
Mon 09:26:20 AM 18.3333 -65.1000 71° East 130 150 2,100 -248 Descending San Juan Center
Mon 09:27:20 AM 18.3333 -65.0667 90° East 110 127 1,700 -450 Descending San Juan Center
Mon 09:28:20 AM 18.3167 -65.0500 136° Southeast 100 115 1,200 -496 Descending San Juan Center
Mon 09:29:21 AM 18.3333 -65.0167 62° Northeast 110 127 700 -492 Descending San Juan Center

Login

Don't have an account? Register now (free) for customized features, flight alerts, and more!